createdAt,value
2018-04-15T00:01:50.547Z,13.24
2018-04-15T00:04:18.052Z,13.14
2018-04-15T00:06:45.703Z,13.14
2018-04-15T00:09:13.211Z,13.09
2018-04-15T00:11:40.714Z,13.04
2018-04-15T00:14:08.264Z,12.94
2018-04-15T00:16:35.785Z,12.91
2018-04-15T00:19:03.295Z,12.94
2018-04-15T00:21:31.264Z,12.94
2018-04-15T00:23:58.773Z,12.89
2018-04-15T00:26:26.292Z,12.82
2018-04-15T00:28:53.839Z,12.71
2018-04-15T00:31:21.347Z,12.79
2018-04-15T00:33:48.855Z,12.71
2018-04-15T00:36:16.723Z,12.78
2018-04-15T00:38:44.230Z,12.69
2018-04-15T00:41:11.732Z,12.64
2018-04-15T00:43:39.447Z,12.55
2018-04-15T00:46:07.371Z,12.44
2018-04-15T00:48:34.955Z,12.39
2018-04-15T00:51:02.695Z,12.43
2018-04-15T00:53:42.082Z,12.39
2018-04-15T00:56:10.175Z,12.48
2018-04-15T00:58:37.692Z,12.45
2018-04-15T01:01:05.195Z,12.32
2018-04-15T01:03:32.823Z,12.24
2018-04-15T01:06:00.327Z,12.36
2018-04-15T01:08:27.837Z,12.34
2018-04-15T01:10:55.379Z,12.21
2018-04-15T01:13:22.894Z,12.26
2018-04-15T01:15:50.404Z,12.16
2018-04-15T01:18:18.090Z,12.15
2018-04-15T01:20:45.600Z,12.19
2018-04-15T01:23:13.106Z,12.14
2018-04-15T01:25:41.127Z,11.89
2018-04-15T01:28:08.629Z,11.84
2018-04-15T01:30:36.138Z,11.68
2018-04-15T01:33:03.803Z,11.73
2018-04-15T01:35:31.427Z,11.74
2018-04-15T01:37:58.931Z,11.62
2018-04-15T01:40:26.684Z,11.51
2018-04-15T01:42:54.452Z,11.48
2018-04-15T01:45:22.031Z,11.43
2018-04-15T01:47:49.774Z,11.36
2018-04-15T01:50:17.277Z,11.31
2018-04-15T01:52:44.792Z,11.21
2018-04-15T01:55:12.552Z,11.29
2018-04-15T01:57:40.062Z,11.33
2018-04-15T02:00:07.596Z,11.51
2018-04-15T02:02:35.335Z,11.58
2018-04-15T02:05:02.843Z,11.73
2018-04-15T02:07:30.342Z,11.68
2018-04-15T02:09:57.882Z,11.72
2018-04-15T02:12:25.392Z,11.55
2018-04-15T02:14:52.899Z,11.58
2018-04-15T02:17:20.684Z,11.52
2018-04-15T02:19:48.195Z,11.59
2018-04-15T02:22:15.700Z,11.54
2018-04-15T02:24:44.216Z,11.43
2018-04-15T02:27:11.724Z,11.38
2018-04-15T02:29:39.235Z,11.39
2018-04-15T02:32:07.074Z,11.52
2018-04-15T02:34:35.060Z,11.64
2018-04-15T02:37:02.568Z,11.68
2018-04-15T02:39:30.116Z,11.69
2018-04-15T02:41:57.623Z,11.59
2018-04-15T02:44:25.153Z,11.69
2018-04-15T02:46:52.712Z,11.76
2018-04-15T02:49:20.227Z,11.74
2018-04-15T02:51:47.736Z,11.52
2018-04-15T02:54:15.297Z,11.50
2018-04-15T02:56:42.806Z,11.51
2018-04-15T02:59:10.544Z,11.41
2018-04-15T03:01:38.222Z,11.39
2018-04-15T03:04:06.191Z,11.40
2018-04-15T03:06:33.690Z,11.40
2018-04-15T03:09:01.514Z,11.31
2018-04-15T03:11:29.023Z,11.27
2018-04-15T03:13:56.534Z,11.34
2018-04-15T03:16:24.184Z,11.26
2018-04-15T03:18:51.695Z,11.43
2018-04-15T03:21:19.206Z,11.27
2018-04-15T03:23:46.841Z,11.28
2018-04-15T03:26:14.343Z,11.41
2018-04-15T03:28:41.851Z,11.28
2018-04-15T03:31:09.398Z,11.12
2018-04-15T03:33:36.910Z,11.24
2018-04-15T03:36:04.415Z,11.25
2018-04-15T03:38:32.087Z,11.27
2018-04-15T03:40:59.594Z,11.19
2018-04-15T03:43:27.107Z,11.26
2018-04-15T03:45:54.871Z,11.27
2018-04-15T03:48:22.376Z,11.10
2018-04-15T03:50:49.882Z,10.93
2018-04-15T03:53:17.414Z,11.10
2018-04-15T03:55:44.918Z,10.92
2018-04-15T03:58:12.494Z,11.01
2018-04-15T04:00:40.440Z,10.82
2018-04-15T04:03:07.948Z,10.88
2018-04-15T04:05:35.452Z,10.87
2018-04-15T04:08:03.332Z,10.88
2018-04-15T04:10:30.839Z,10.92
2018-04-15T04:12:58.364Z,10.92
2018-04-15T04:15:26.099Z,11.04
2018-04-15T04:18:05.347Z,10.79
2018-04-15T04:20:45.083Z,10.86
2018-04-15T04:23:24.559Z,10.72
2018-04-15T04:26:04.373Z,10.91
2018-04-15T04:28:32.055Z,10.89
2018-04-15T04:30:59.821Z,10.91
2018-04-15T04:33:27.587Z,10.94
2018-04-15T04:35:55.092Z,10.89
2018-04-15T04:38:22.595Z,10.78
2018-04-15T04:40:50.227Z,10.81
2018-04-15T04:43:18.292Z,10.90
2018-04-15T04:45:45.803Z,10.76
2018-04-15T04:48:13.727Z,10.69
2018-04-15T04:50:41.235Z,10.80
2018-04-15T04:53:08.739Z,10.89
2018-04-15T04:55:36.275Z,10.70
2018-04-15T04:58:03.779Z,10.88
2018-04-15T05:00:31.282Z,10.97
2018-04-15T05:02:59.183Z,10.96
2018-04-15T05:05:27.107Z,10.86
2018-04-15T05:07:54.616Z,10.88
2018-04-15T05:10:22.150Z,10.98
2018-04-15T05:12:49.665Z,10.87
2018-04-15T05:15:17.166Z,10.79
2018-04-15T05:17:44.851Z,10.97
2018-04-15T05:20:12.363Z,10.81
2018-04-15T05:22:40.407Z,10.79
2018-04-15T05:25:08.016Z,10.86
2018-04-15T05:27:36.550Z,11.03
2018-04-15T05:30:04.051Z,10.91
2018-04-15T05:32:31.843Z,11.15
2018-04-15T05:34:59.343Z,11.21
2018-04-15T05:37:26.850Z,11.40
2018-04-15T05:39:54.407Z,11.57
2018-04-15T05:42:21.915Z,11.84
2018-04-15T05:44:49.415Z,12.13
2018-04-15T05:47:17.044Z,12.25
2018-04-15T05:49:44.553Z,12.47
2018-04-15T05:52:12.059Z,12.74
2018-04-15T05:54:39.592Z,12.89
2018-04-15T05:57:07.096Z,12.94
2018-04-15T05:59:34.633Z,13.20
2018-04-15T06:02:02.264Z,13.43
2018-04-15T06:04:29.779Z,13.67
2018-04-15T06:06:57.292Z,14.12
2018-04-15T06:09:25.131Z,14.59
2018-04-15T06:11:53.643Z,15.08
2018-04-15T06:14:21.152Z,15.24
2018-04-15T06:16:48.713Z,15.22
2018-04-15T06:19:16.730Z,15.32
2018-04-15T06:21:44.235Z,15.87
2018-04-15T06:24:12.127Z,16.10
2018-04-15T06:26:39.631Z,16.45
2018-04-15T06:29:07.135Z,16.90
2018-04-15T06:31:34.666Z,17.30
2018-04-15T06:34:02.172Z,17.55
2018-04-15T06:36:29.673Z,17.95
2018-04-15T06:38:57.206Z,18.31
2018-04-15T06:41:24.708Z,18.43
2018-04-15T06:43:52.203Z,18.61
2018-04-15T06:46:20.056Z,19.14
2018-04-15T06:48:47.560Z,19.33
2018-04-15T06:51:15.062Z,19.78
2018-04-15T06:53:42.615Z,19.16
2018-04-15T06:56:10.173Z,19.03
2018-04-15T06:58:37.680Z,19.13
2018-04-15T07:01:05.261Z,19.56
2018-04-15T07:03:32.788Z,19.76
2018-04-15T07:06:00.299Z,20.23
2018-04-15T07:08:28.000Z,20.16
2018-04-15T07:10:55.506Z,20.32
2018-04-15T07:13:23.017Z,20.39
2018-04-15T07:15:50.766Z,20.49
2018-04-15T07:18:18.271Z,20.18
2018-04-15T07:20:45.772Z,20.03
2018-04-15T07:23:13.449Z,20.17
2018-04-15T07:25:40.952Z,20.15
2018-04-15T07:28:08.451Z,20.37
2018-04-15T07:30:36.232Z,20.33
2018-04-15T07:33:03.740Z,21.06
2018-04-15T07:35:31.315Z,21.31
2018-04-15T07:37:58.963Z,21.40
2018-04-15T07:40:26.466Z,21.63
2018-04-15T07:42:53.992Z,22.10
2018-04-15T07:45:21.915Z,22.32
2018-04-15T07:47:49.422Z,22.71
2018-04-15T07:50:16.926Z,22.73
2018-04-15T07:52:44.907Z,23.08
2018-04-15T07:55:12.434Z,23.63
2018-04-15T07:57:40.947Z,23.61
2018-04-15T08:00:08.619Z,23.04
2018-04-15T08:02:36.378Z,23.63
2018-04-15T08:05:04.341Z,23.87
2018-04-15T08:07:32.003Z,24.09
2018-04-15T08:10:01.308Z,24.37
2018-04-15T08:12:28.823Z,24.19
2018-04-15T08:14:56.799Z,23.92
2018-04-15T08:17:25.325Z,24.07
2018-04-15T08:19:53.730Z,24.63
2018-04-15T08:22:21.310Z,25.07
2018-04-15T08:24:48.827Z,25.41
2018-04-15T08:27:16.471Z,25.61
2018-04-15T08:29:44.026Z,25.59
2018-04-15T08:32:11.742Z,25.60
2018-04-15T08:34:39.286Z,26.01
2018-04-15T08:37:06.826Z,26.03
2018-04-15T08:39:34.474Z,26.34
2018-04-15T08:42:01.993Z,26.56
2018-04-15T08:44:29.659Z,27.20
2018-04-15T08:46:57.357Z,27.47
2018-04-15T08:49:24.889Z,27.53
2018-04-15T08:51:52.443Z,27.91
2018-04-15T08:54:20.326Z,28.95
2018-04-15T08:56:47.887Z,29.89
2018-04-15T08:59:15.423Z,29.12
2018-04-15T09:01:42.976Z,28.87
2018-04-15T09:04:10.485Z,28.96
2018-04-15T09:06:39.469Z,29.33
2018-04-15T09:09:07.388Z,28.96
2018-04-15T09:11:35.068Z,28.94
2018-04-15T09:14:02.835Z,28.29
2018-04-15T09:16:30.527Z,29.46
2018-04-15T09:18:58.279Z,29.37
2018-04-15T09:21:26.312Z,29.08
2018-04-15T09:23:53.919Z,30.19
2018-04-15T09:26:21.494Z,32.67
2018-04-15T09:28:49.141Z,32.33
2018-04-15T09:31:16.691Z,33.01
2018-04-15T09:33:44.356Z,31.84
2018-04-15T09:36:12.206Z,30.40
2018-04-15T09:38:39.995Z,30.95
2018-04-15T09:41:07.748Z,31.34
2018-04-15T09:43:35.630Z,32.72
2018-04-15T09:46:03.449Z,34.44
2018-04-15T09:48:31.297Z,35.15
2018-04-15T09:50:59.737Z,34.53
2018-04-15T09:53:27.645Z,35.45
2018-04-15T09:55:55.584Z,36.72
2018-04-15T09:58:24.084Z,35.95
2018-04-15T10:00:52.002Z,36.87
2018-04-15T10:03:19.773Z,36.00
2018-04-15T10:05:48.675Z,36.44
2018-04-15T10:08:16.540Z,35.94
2018-04-15T10:10:44.409Z,35.49
2018-04-15T10:13:12.383Z,34.38
2018-04-15T10:15:40.243Z,34.05
2018-04-15T10:18:08.113Z,34.50
2018-04-15T10:20:36.217Z,34.58
2018-04-15T10:23:03.737Z,34.63
2018-04-15T10:25:31.403Z,34.68
2018-04-15T10:27:59.009Z,34.61
2018-04-15T10:30:26.663Z,34.05
2018-04-15T10:32:54.495Z,32.86
2018-04-15T10:35:22.226Z,33.56
2018-04-15T10:37:49.776Z,32.53
2018-04-15T10:40:17.962Z,31.49
2018-04-15T10:42:45.622Z,30.27
2018-04-15T10:45:13.188Z,30.00
2018-04-15T10:47:40.816Z,30.35
2018-04-15T10:50:08.359Z,31.55
2018-04-15T10:52:35.858Z,31.45
2018-04-15T10:55:03.555Z,31.60
2018-04-15T10:57:31.178Z,32.34
2018-04-15T10:59:58.687Z,30.98
2018-04-15T11:02:26.436Z,30.73
2018-04-15T11:04:54.234Z,29.84
2018-04-15T11:07:21.859Z,29.70
2018-04-15T11:09:49.726Z,29.39
2018-04-15T11:12:17.701Z,29.67
2018-04-15T11:14:45.563Z,30.35
2018-04-15T11:17:13.431Z,31.04
2018-04-15T11:19:41.770Z,30.50
2018-04-15T11:22:09.572Z,30.19
2018-04-15T11:24:38.018Z,31.21
2018-04-15T11:27:05.918Z,31.12
2018-04-15T11:29:33.742Z,30.68
2018-04-15T11:32:01.583Z,29.50
2018-04-15T11:34:29.415Z,28.62
2018-04-15T11:36:56.963Z,28.24
2018-04-15T11:39:24.862Z,27.55
2018-04-15T11:41:52.636Z,26.83
2018-04-15T11:44:20.471Z,26.45
2018-04-15T11:46:48.235Z,26.75
2018-04-15T11:49:15.924Z,26.68
2018-04-15T11:51:43.709Z,26.84
2018-04-15T11:54:11.630Z,27.40
2018-04-15T11:56:39.458Z,28.27
2018-04-15T11:59:07.361Z,28.27
2018-04-15T12:01:34.924Z,28.69
2018-04-15T12:04:02.476Z,29.43
2018-04-15T12:06:30.144Z,30.03
2018-04-15T12:08:57.727Z,30.23
2018-04-15T12:11:25.673Z,30.39
2018-04-15T12:13:53.216Z,31.43
2018-04-15T12:16:20.834Z,31.76
2018-04-15T12:18:48.553Z,32.27
2018-04-15T12:21:16.075Z,32.55
2018-04-15T12:23:43.598Z,32.38
2018-04-15T12:26:11.321Z,33.11
2018-04-15T12:28:38.911Z,34.00
2018-04-15T12:31:06.661Z,34.22
2018-04-15T12:33:34.269Z,33.64
2018-04-15T12:36:01.881Z,32.74
2018-04-15T12:38:29.611Z,31.79
2018-04-15T12:40:57.526Z,31.24
2018-04-15T12:43:25.242Z,30.98
2018-04-15T12:45:52.748Z,30.80
2018-04-15T12:48:20.805Z,31.62
2018-04-15T12:50:48.411Z,31.95
2018-04-15T12:53:16.240Z,32.22
2018-04-15T12:55:44.229Z,32.92
2018-04-15T12:58:12.785Z,33.74
2018-04-15T13:00:40.652Z,33.59
2018-04-15T13:03:08.413Z,31.67
2018-04-15T13:05:37.101Z,30.89
2018-04-15T13:08:04.748Z,30.56
2018-04-15T13:10:32.677Z,28.90
2018-04-15T13:13:00.315Z,29.37
2018-04-15T13:15:28.364Z,29.59
2018-04-15T13:17:56.535Z,30.13
2018-04-15T13:20:24.289Z,31.74
2018-04-15T13:22:52.128Z,31.76
2018-04-15T13:25:19.838Z,32.61
2018-04-15T13:27:47.528Z,33.04
2018-04-15T13:30:15.254Z,33.51
2018-04-15T13:32:43.301Z,34.27
2018-04-15T13:35:10.849Z,34.78
2018-04-15T13:37:38.492Z,33.58
2018-04-15T13:40:06.311Z,32.94
2018-04-15T13:42:33.940Z,33.19
2018-04-15T13:45:01.689Z,33.00
2018-04-15T13:47:29.578Z,33.56
2018-04-15T13:49:57.321Z,33.93
2018-04-15T13:52:24.936Z,34.44
2018-04-15T13:54:53.817Z,34.54
2018-04-15T13:57:21.464Z,34.43
2018-04-15T13:59:49.136Z,35.18
2018-04-15T14:02:16.879Z,34.22
2018-04-15T14:04:44.462Z,34.88
2018-04-15T14:07:12.079Z,34.26
2018-04-15T14:09:39.922Z,34.43
2018-04-15T14:12:07.618Z,34.91
2018-04-15T14:14:35.150Z,35.72
2018-04-15T14:17:02.946Z,35.23
2018-04-15T14:19:30.479Z,35.49
2018-04-15T14:21:58.037Z,35.27
2018-04-15T14:24:25.758Z,34.13
2018-04-15T14:26:53.313Z,33.57
2018-04-15T14:29:21.070Z,32.64
2018-04-15T14:31:49.357Z,32.06
2018-04-15T14:34:17.096Z,31.28
2018-04-15T14:36:44.721Z,30.49
2018-04-15T14:39:12.628Z,30.29
2018-04-15T14:41:40.472Z,30.18
2018-04-15T14:44:08.293Z,30.46
2018-04-15T14:46:36.324Z,30.31
2018-04-15T14:49:04.216Z,30.56
2018-04-15T14:51:32.247Z,30.20
2018-04-15T14:54:00.461Z,29.71
2018-04-15T14:56:28.219Z,30.05
2018-04-15T14:58:56.091Z,29.99
2018-04-15T15:01:24.164Z,29.40
2018-04-15T15:03:52.030Z,30.63
2018-04-15T15:06:19.691Z,31.37
2018-04-15T15:08:47.536Z,31.58
2018-04-15T15:11:15.533Z,31.14
2018-04-15T15:13:43.394Z,30.78
2018-04-15T15:16:11.668Z,30.90
2018-04-15T15:18:39.332Z,31.29
2018-04-15T15:21:07.095Z,31.66
2018-04-15T15:23:36.120Z,31.77
2018-04-15T15:26:03.806Z,31.66
2018-04-15T15:28:31.627Z,31.98
2018-04-15T15:30:59.577Z,31.75
2018-04-15T15:33:27.248Z,31.17
2018-04-15T15:35:55.086Z,29.84
2018-04-15T15:38:23.186Z,29.68
2018-04-15T15:40:51.445Z,29.80
2018-04-15T15:43:19.328Z,30.08
2018-04-15T15:45:47.424Z,29.90
2018-04-15T15:48:15.266Z,29.41
2018-04-15T15:50:43.420Z,28.86
2018-04-15T15:53:11.783Z,27.72
2018-04-15T15:55:39.686Z,27.46
2018-04-15T15:58:07.551Z,27.35
2018-04-15T16:00:35.421Z,27.19
2018-04-15T16:03:03.386Z,27.36
2018-04-15T16:05:31.458Z,27.12
2018-04-15T16:07:59.516Z,26.80
2018-04-15T16:10:27.605Z,26.78
2018-04-15T16:12:56.082Z,26.45
2018-04-15T16:15:25.367Z,26.26
2018-04-15T16:17:53.248Z,25.73
2018-04-15T16:20:20.973Z,25.58
2018-04-15T16:22:48.984Z,25.34
2018-04-15T16:25:16.851Z,25.14
2018-04-15T16:27:44.619Z,24.81
2018-04-15T16:30:12.684Z,24.43
2018-04-15T16:32:40.654Z,24.50
2018-04-15T16:35:08.781Z,24.50
2018-04-15T16:37:36.902Z,24.11
2018-04-15T16:40:04.668Z,24.14
2018-04-15T16:42:32.529Z,24.20
2018-04-15T16:45:00.809Z,24.23
2018-04-15T16:47:28.668Z,24.36
2018-04-15T16:49:56.639Z,24.37
2018-04-15T16:52:26.024Z,24.21
2018-04-15T16:54:54.219Z,23.99
2018-04-15T16:57:22.085Z,23.85
2018-04-15T16:59:50.027Z,23.93
2018-04-15T17:02:18.028Z,23.58
2018-04-15T17:04:45.890Z,23.62
2018-04-15T17:07:14.574Z,23.65
2018-04-15T17:09:42.552Z,23.47
2018-04-15T17:12:10.617Z,23.33
2018-04-15T17:14:38.382Z,23.21
2018-04-15T17:17:07.222Z,22.98
2018-04-15T17:19:35.089Z,22.88
2018-04-15T17:22:03.258Z,22.73
2018-04-15T17:24:30.970Z,22.60
2018-04-15T17:26:58.943Z,22.50
2018-04-15T17:29:26.983Z,22.41
2018-04-15T17:31:54.854Z,22.10
2018-04-15T17:34:22.723Z,22.17
2018-04-15T17:36:50.919Z,22.10
2018-04-15T17:39:18.754Z,21.96
2018-04-15T17:41:46.921Z,21.92
2018-04-15T17:44:15.338Z,21.83
2018-04-15T17:46:43.202Z,21.78
2018-04-15T17:49:11.479Z,21.69
2018-04-15T17:51:39.450Z,21.62
2018-04-15T17:54:07.286Z,21.58
2018-04-15T17:56:35.090Z,21.52
2018-04-15T17:59:03.315Z,21.45
2018-04-15T18:01:31.484Z,21.38
2018-04-15T18:03:59.603Z,21.28
2018-04-15T18:06:27.466Z,21.25
2018-04-15T18:08:55.333Z,21.15
2018-04-15T18:11:23.198Z,21.10
2018-04-15T18:13:51.287Z,20.99
2018-04-15T18:16:19.140Z,21.02
2018-04-15T18:18:47.038Z,20.89
2018-04-15T18:21:15.177Z,20.87
2018-04-15T18:23:43.043Z,20.82
2018-04-15T18:26:10.735Z,20.81
2018-04-15T18:28:38.777Z,20.66
2018-04-15T18:31:06.643Z,20.64
2018-04-15T18:33:34.512Z,20.62
2018-04-15T18:36:02.889Z,20.60
2018-04-15T18:38:30.759Z,20.60
2018-04-15T18:40:58.728Z,20.53
2018-04-15T18:43:27.001Z,20.42
2018-04-15T18:45:54.872Z,20.34
2018-04-15T18:48:22.735Z,20.39
2018-04-15T18:50:51.012Z,20.36
2018-04-15T18:53:18.981Z,20.31
2018-04-15T18:55:46.951Z,20.28
2018-04-15T18:58:14.918Z,20.26
2018-04-15T19:00:42.785Z,20.19
2018-04-15T19:03:10.666Z,20.24
2018-04-15T19:05:39.579Z,20.22
2018-04-15T19:08:07.374Z,20.13
2018-04-15T19:10:36.094Z,20.10
2018-04-15T19:13:04.235Z,20.11
2018-04-15T19:15:32.216Z,20.02
2018-04-15T19:18:00.104Z,20.03
2018-04-15T19:20:28.384Z,20.05
2018-04-15T19:22:56.759Z,19.97
2018-04-15T19:25:24.727Z,19.97
2018-04-15T19:27:52.595Z,20.02
2018-04-15T19:30:20.376Z,19.96
2018-04-15T19:32:48.170Z,20.00
2018-04-15T19:35:16.298Z,19.99
2018-04-15T19:37:45.083Z,19.86
2018-04-15T19:40:12.897Z,19.93
2018-04-15T19:42:41.022Z,19.95
2018-04-15T19:45:08.991Z,19.87
2018-04-15T19:47:36.857Z,19.91
2018-04-15T19:50:05.647Z,19.89
2018-04-15T19:52:33.513Z,19.91
2018-04-15T19:55:01.585Z,19.77
2018-04-15T19:57:30.063Z,19.84
2018-04-15T19:59:57.932Z,19.73
2018-04-15T20:02:25.902Z,19.66
2018-04-15T20:04:54.074Z,19.81
2018-04-15T20:07:22.248Z,19.78
2018-04-15T20:09:50.078Z,19.73
2018-04-15T20:12:18.084Z,19.74
2018-04-15T20:14:46.102Z,19.70
2018-04-15T20:17:14.526Z,19.71
2018-04-15T20:19:42.617Z,19.62
2018-04-15T20:22:10.863Z,19.67
2018-04-15T20:24:38.754Z,19.63
2018-04-15T20:27:07.072Z,19.64
2018-04-15T20:29:34.840Z,19.63
2018-04-15T20:32:03.780Z,19.67
2018-04-15T20:34:32.107Z,19.61
2018-04-15T20:36:59.923Z,19.64
2018-04-15T20:39:27.789Z,19.57
2018-04-15T20:41:55.656Z,19.66
2018-04-15T20:44:23.494Z,19.64
2018-04-15T20:46:51.287Z,19.59
2018-04-15T20:49:19.563Z,19.59
2018-04-15T20:51:47.429Z,19.56
2018-04-15T20:54:15.501Z,19.49
2018-04-15T20:56:44.084Z,19.50
2018-04-15T20:59:11.951Z,19.42
2018-04-15T21:01:40.330Z,19.47
2018-04-15T21:04:08.393Z,19.41
2018-04-15T21:06:36.153Z,19.46
2018-04-15T21:09:03.931Z,19.49
2018-04-15T21:11:31.695Z,19.50
2018-04-15T21:13:59.323Z,19.43
2018-04-15T21:16:26.871Z,19.33
2018-04-15T21:18:54.830Z,19.39
2018-04-15T21:21:22.518Z,19.38
2018-04-15T21:23:50.095Z,19.37
2018-04-15T21:26:17.663Z,19.39
2018-04-15T21:28:45.244Z,19.34
2018-04-15T21:31:12.772Z,19.37
2018-04-15T21:33:40.314Z,19.25
2018-04-15T21:36:07.824Z,19.34
2018-04-15T21:38:35.429Z,19.26
2018-04-15T21:41:02.987Z,19.20
2018-04-15T21:43:30.562Z,19.08
2018-04-15T21:45:58.073Z,18.97
2018-04-15T21:48:25.615Z,19.14
2018-04-15T21:50:53.144Z,19.01
2018-04-15T21:53:20.650Z,18.94
2018-04-15T21:55:48.348Z,18.80
2018-04-15T21:58:16.332Z,18.68
2018-04-15T22:00:43.891Z,18.85
2018-04-15T22:03:11.752Z,18.75
2018-04-15T22:05:39.265Z,18.70
2018-04-15T22:08:06.774Z,18.46
2018-04-15T22:10:34.560Z,18.62
2018-04-15T22:13:05.787Z,18.45
2018-04-15T22:15:33.284Z,18.60
2018-04-15T22:18:00.829Z,18.35
2018-04-15T22:20:28.336Z,18.41
2018-04-15T22:22:55.838Z,18.34
2018-04-15T22:25:23.385Z,18.42
2018-04-15T22:27:50.888Z,18.35
2018-04-15T22:30:18.395Z,18.25
2018-04-15T22:32:46.035Z,18.43
2018-04-15T22:35:13.544Z,18.45
2018-04-15T22:37:41.056Z,18.52
2018-04-15T22:40:08.595Z,18.38
2018-04-15T22:42:36.115Z,18.51
2018-04-15T22:45:03.631Z,18.44
2018-04-15T22:47:31.287Z,18.31
2018-04-15T22:50:04.258Z,18.35
2018-04-15T22:52:31.795Z,18.33
2018-04-15T22:54:59.363Z,18.25
2018-04-15T22:57:26.870Z,18.38
2018-04-15T22:59:54.612Z,18.23
2018-04-15T23:02:22.119Z,18.20
2018-04-15T23:04:49.620Z,18.29
2018-04-15T23:07:17.391Z,18.33
2018-04-15T23:09:44.890Z,18.37
2018-04-15T23:12:12.404Z,18.36
2018-04-15T23:14:40.175Z,18.32
2018-04-15T23:17:07.704Z,18.23
2018-04-15T23:19:35.736Z,18.28
2018-04-15T23:22:03.275Z,18.20
2018-04-15T23:24:30.783Z,18.15
2018-04-15T23:26:58.291Z,18.24
2018-04-15T23:29:25.942Z,18.00
2018-04-15T23:31:53.448Z,18.19
2018-04-15T23:34:20.947Z,18.21
2018-04-15T23:36:48.503Z,18.20
2018-04-15T23:39:16.005Z,18.34
2018-04-15T23:41:43.511Z,18.20
2018-04-15T23:44:11.511Z,18.19
2018-04-15T23:46:39.024Z,18.17
2018-04-15T23:49:06.538Z,18.27
2018-04-15T23:51:34.076Z,18.25
2018-04-15T23:54:02.063Z,18.05
2018-04-15T23:56:29.571Z,18.05
2018-04-15T23:58:57.371Z,18.11
